sensor_id;sensor_type;location;lat;lon;timestamp;P1;durP1;ratioP1;P2;durP2;ratioP2
49472;SDS011;67434;50.956;6.918;2023-02-28T00:02:14;5.70;;;1.95;;
49472;SDS011;67434;50.956;6.918;2023-02-28T00:04:42;3.58;;;1.83;;
49472;SDS011;67434;50.956;6.918;2023-02-28T00:07:08;3.95;;;1.83;;
49472;SDS011;67434;50.956;6.918;2023-02-28T00:09:33;4.80;;;2.35;;
49472;SDS011;67434;50.956;6.918;2023-02-28T00:11:58;6.43;;;2.30;;
49472;SDS011;67434;50.956;6.918;2023-02-28T00:14:23;7.93;;;2.83;;
49472;SDS011;67434;50.956;6.918;2023-02-28T00:16:49;10.73;;;3.13;;
49472;SDS011;67434;50.956;6.918;2023-02-28T00:19:14;3.22;;;2.03;;
49472;SDS011;67434;50.956;6.918;2023-02-28T00:21:39;4.35;;;1.88;;
49472;SDS011;67434;50.956;6.918;2023-02-28T00:24:06;3.55;;;1.60;;
49472;SDS011;67434;50.956;6.918;2023-02-28T00:26:31;3.20;;;1.85;;
49472;SDS011;67434;50.956;6.918;2023-02-28T00:28:57;6.35;;;2.22;;
49472;SDS011;67434;50.956;6.918;2023-02-28T00:31:22;6.45;;;2.60;;
49472;SDS011;67434;50.956;6.918;2023-02-28T00:33:48;3.22;;;1.77;;
49472;SDS011;67434;50.956;6.918;2023-02-28T00:36:13;2.92;;;1.15;;
49472;SDS011;67434;50.956;6.918;2023-02-28T00:38:38;6.13;;;1.70;;
49472;SDS011;67434;50.956;6.918;2023-02-28T00:41:05;3.00;;;2.28;;
49472;SDS011;67434;50.956;6.918;2023-02-28T00:43:35;2.70;;;1.42;;
49472;SDS011;67434;50.956;6.918;2023-02-28T00:46:02;2.67;;;1.25;;
49472;SDS011;67434;50.956;6.918;2023-02-28T00:48:46;5.05;;;1.35;;
49472;SDS011;67434;50.956;6.918;2023-02-28T00:51:12;3.30;;;1.05;;
49472;SDS011;67434;50.956;6.918;2023-02-28T00:53:37;2.13;;;1.52;;
49472;SDS011;67434;50.956;6.918;2023-02-28T00:56:03;6.72;;;1.90;;
49472;SDS011;67434;50.956;6.918;2023-02-28T00:58:28;4.45;;;1.33;;
49472;SDS011;67434;50.956;6.918;2023-02-28T01:00:54;4.60;;;1.63;;
49472;SDS011;67434;50.956;6.918;2023-02-28T01:03:19;2.63;;;1.45;;
49472;SDS011;67434;50.956;6.918;2023-02-28T01:05:46;2.13;;;1.27;;
49472;SDS011;67434;50.956;6.918;2023-02-28T01:08:12;3.22;;;1.55;;
49472;SDS011;67434;50.956;6.918;2023-02-28T01:10:38;3.58;;;1.40;;
49472;SDS011;67434;50.956;6.918;2023-02-28T01:13:04;4.00;;;1.45;;
49472;SDS011;67434;50.956;6.918;2023-02-28T01:15:30;6.30;;;1.67;;
49472;SDS011;67434;50.956;6.918;2023-02-28T01:17:56;2.75;;;1.45;;
49472;SDS011;67434;50.956;6.918;2023-02-28T01:20:22;2.00;;;1.10;;
49472;SDS011;67434;50.956;6.918;2023-02-28T01:22:47;5.05;;;1.73;;
49472;SDS011;67434;50.956;6.918;2023-02-28T01:25:13;2.78;;;1.55;;
49472;SDS011;67434;50.956;6.918;2023-02-28T01:27:38;2.90;;;1.42;;
49472;SDS011;67434;50.956;6.918;2023-02-28T01:30:05;3.65;;;1.67;;
49472;SDS011;67434;50.956;6.918;2023-02-28T01:32:31;2.42;;;1.33;;
49472;SDS011;67434;50.956;6.918;2023-02-28T01:34:57;3.25;;;1.40;;
49472;SDS011;67434;50.956;6.918;2023-02-28T01:37:22;2.15;;;1.30;;
49472;SDS011;67434;50.956;6.918;2023-02-28T01:39:47;1.98;;;1.25;;
49472;SDS011;67434;50.956;6.918;2023-02-28T01:42:13;4.60;;;1.20;;
49472;SDS011;67434;50.956;6.918;2023-02-28T01:44:55;3.60;;;1.30;;
49472;SDS011;67434;50.956;6.918;2023-02-28T01:47:25;2.60;;;1.17;;
49472;SDS011;67434;50.956;6.918;2023-02-28T01:49:54;2.97;;;1.70;;
49472;SDS011;67434;50.956;6.918;2023-02-28T01:52:20;2.20;;;1.45;;
49472;SDS011;67434;50.956;6.918;2023-02-28T01:54:51;4.97;;;1.88;;
49472;SDS011;67434;50.956;6.918;2023-02-28T01:57:20;3.47;;;1.42;;
49472;SDS011;67434;50.956;6.918;2023-02-28T02:02:23;3.72;;;1.48;;
49472;SDS011;67434;50.956;6.918;2023-02-28T02:04:51;4.07;;;1.48;;
49472;SDS011;67434;50.956;6.918;2023-02-28T02:07:24;1.33;;;0.95;;
49472;SDS011;67434;50.956;6.918;2023-02-28T02:09:59;1.75;;;1.05;;
49472;SDS011;67434;50.956;6.918;2023-02-28T02:17:30;5.75;;;1.58;;
49472;SDS011;67434;50.956;6.918;2023-02-28T02:28:40;3.10;;;1.45;;
49472;SDS011;67434;50.956;6.918;2023-02-28T02:43:06;3.00;;;1.80;;
49472;SDS011;67434;50.956;6.918;2023-02-28T02:48:08;3.45;;;1.45;;
49472;SDS011;67434;50.956;6.918;2023-02-28T02:51:20;3.42;;;1.40;;
49472;SDS011;67434;50.956;6.918;2023-02-28T02:53:30;3.83;;;1.35;;
49472;SDS011;67434;50.956;6.918;2023-02-28T02:56:00;2.85;;;1.00;;
49472;SDS011;67434;50.956;6.918;2023-02-28T02:58:29;3.38;;;1.25;;
49472;SDS011;67434;50.956;6.918;2023-02-28T03:01:00;3.30;;;1.58;;
49472;SDS011;67434;50.956;6.918;2023-02-28T03:03:27;3.40;;;1.48;;
49472;SDS011;67434;50.956;6.918;2023-02-28T03:05:55;2.42;;;1.20;;
49472;SDS011;67434;50.956;6.918;2023-02-28T03:08:44;3.75;;;1.30;;
49472;SDS011;67434;50.956;6.918;2023-02-28T03:11:12;3.35;;;1.60;;
49472;SDS011;67434;50.956;6.918;2023-02-28T03:16:25;3.15;;;1.48;;
49472;SDS011;67434;50.956;6.918;2023-02-28T03:27:27;7.72;;;1.95;;
49472;SDS011;67434;50.956;6.918;2023-02-28T03:30:05;2.22;;;1.55;;
49472;SDS011;67434;50.956;6.918;2023-02-28T03:32:36;2.17;;;1.50;;
49472;SDS011;67434;50.956;6.918;2023-02-28T03:35:09;2.53;;;1.30;;
49472;SDS011;67434;50.956;6.918;2023-02-28T03:37:47;6.45;;;1.88;;
49472;SDS011;67434;50.956;6.918;2023-02-28T03:40:19;3.30;;;1.50;;
49472;SDS011;67434;50.956;6.918;2023-02-28T03:42:50;3.58;;;1.38;;
49472;SDS011;67434;50.956;6.918;2023-02-28T03:45:21;2.28;;;1.35;;
49472;SDS011;67434;50.956;6.918;2023-02-28T03:48:01;2.22;;;1.40;;
49472;SDS011;67434;50.956;6.918;2023-02-28T03:50:40;3.47;;;1.30;;
49472;SDS011;67434;50.956;6.918;2023-02-28T03:53:24;2.38;;;1.17;;
49472;SDS011;67434;50.956;6.918;2023-02-28T03:56:08;1.80;;;1.08;;
49472;SDS011;67434;50.956;6.918;2023-02-28T03:58:41;4.05;;;1.42;;
49472;SDS011;67434;50.956;6.918;2023-02-28T04:01:13;2.63;;;1.48;;
49472;SDS011;67434;50.956;6.918;2023-02-28T04:03:43;2.47;;;1.52;;
49472;SDS011;67434;50.956;6.918;2023-02-28T04:06:13;2.65;;;1.48;;
49472;SDS011;67434;50.956;6.918;2023-02-28T04:08:41;2.13;;;1.20;;
49472;SDS011;67434;50.956;6.918;2023-02-28T04:11:16;2.53;;;1.60;;
49472;SDS011;67434;50.956;6.918;2023-02-28T04:13:46;2.13;;;1.20;;
49472;SDS011;67434;50.956;6.918;2023-02-28T04:16:11;1.98;;;1.40;;
49472;SDS011;67434;50.956;6.918;2023-02-28T04:18:51;2.30;;;1.30;;
49472;SDS011;67434;50.956;6.918;2023-02-28T04:21:17;6.90;;;2.10;;
49472;SDS011;67434;50.956;6.918;2023-02-28T04:23:45;5.15;;;1.58;;
49472;SDS011;67434;50.956;6.918;2023-02-28T04:26:11;3.70;;;1.88;;
49472;SDS011;67434;50.956;6.918;2023-02-28T04:28:37;2.08;;;1.38;;
49472;SDS011;67434;50.956;6.918;2023-02-28T04:31:03;4.85;;;1.98;;
49472;SDS011;67434;50.956;6.918;2023-02-28T04:33:30;2.78;;;1.90;;
49472;SDS011;67434;50.956;6.918;2023-02-28T04:36:00;3.38;;;2.05;;
49472;SDS011;67434;50.956;6.918;2023-02-28T04:38:35;3.67;;;1.42;;
49472;SDS011;67434;50.956;6.918;2023-02-28T04:41:04;3.08;;;1.65;;
49472;SDS011;67434;50.956;6.918;2023-02-28T04:43:48;2.88;;;1.38;;
49472;SDS011;67434;50.956;6.918;2023-02-28T04:46:15;2.55;;;1.60;;
49472;SDS011;67434;50.956;6.918;2023-02-28T04:48:41;2.78;;;1.63;;
49472;SDS011;67434;50.956;6.918;2023-02-28T04:51:07;4.82;;;1.80;;
49472;SDS011;67434;50.956;6.918;2023-02-28T04:53:50;4.20;;;1.80;;
49472;SDS011;67434;50.956;6.918;2023-02-28T04:56:16;2.88;;;2.00;;
49472;SDS011;67434;50.956;6.918;2023-02-28T04:58:43;3.45;;;1.80;;
49472;SDS011;67434;50.956;6.918;2023-02-28T05:03:51;4.50;;;1.75;;
49472;SDS011;67434;50.956;6.918;2023-02-28T05:06:18;3.85;;;2.75;;
49472;SDS011;67434;50.956;6.918;2023-02-28T05:08:45;3.72;;;1.95;;
49472;SDS011;67434;50.956;6.918;2023-02-28T05:11:16;3.28;;;1.95;;
49472;SDS011;67434;50.956;6.918;2023-02-28T05:13:45;3.53;;;2.03;;
49472;SDS011;67434;50.956;6.918;2023-02-28T05:16:11;5.90;;;1.73;;
49472;SDS011;67434;50.956;6.918;2023-02-28T05:18:37;3.92;;;2.30;;
49472;SDS011;67434;50.956;6.918;2023-02-28T05:21:03;2.45;;;1.45;;
49472;SDS011;67434;50.956;6.918;2023-02-28T05:23:28;4.32;;;1.60;;
49472;SDS011;67434;50.956;6.918;2023-02-28T05:25:54;4.18;;;2.08;;
49472;SDS011;67434;50.956;6.918;2023-02-28T05:28:20;2.47;;;1.80;;
49472;SDS011;67434;50.956;6.918;2023-02-28T05:30:45;4.38;;;1.73;;
49472;SDS011;67434;50.956;6.918;2023-02-28T05:33:11;4.22;;;1.90;;
49472;SDS011;67434;50.956;6.918;2023-02-28T05:35:38;3.42;;;2.05;;
49472;SDS011;67434;50.956;6.918;2023-02-28T05:38:04;3.47;;;1.65;;
49472;SDS011;67434;50.956;6.918;2023-02-28T05:40:48;3.40;;;1.92;;
49472;SDS011;67434;50.956;6.918;2023-02-28T05:43:14;8.77;;;2.05;;
49472;SDS011;67434;50.956;6.918;2023-02-28T05:45:39;3.65;;;2.25;;
49472;SDS011;67434;50.956;6.918;2023-02-28T05:48:05;2.55;;;1.50;;
49472;SDS011;67434;50.956;6.918;2023-02-28T05:50:30;3.72;;;1.63;;
49472;SDS011;67434;50.956;6.918;2023-02-28T05:52:56;3.33;;;1.40;;
49472;SDS011;67434;50.956;6.918;2023-02-28T05:55:21;2.53;;;1.52;;
49472;SDS011;67434;50.956;6.918;2023-02-28T05:57:46;2.60;;;1.63;;
49472;SDS011;67434;50.956;6.918;2023-02-28T06:00:12;3.22;;;1.50;;
49472;SDS011;67434;50.956;6.918;2023-02-28T06:02:40;2.25;;;1.80;;
49472;SDS011;67434;50.956;6.918;2023-02-28T06:05:07;4.88;;;2.10;;
49472;SDS011;67434;50.956;6.918;2023-02-28T06:07:37;4.93;;;2.00;;
49472;SDS011;67434;50.956;6.918;2023-02-28T06:10:03;2.53;;;1.90;;
49472;SDS011;67434;50.956;6.918;2023-02-28T06:12:28;3.75;;;2.03;;
49472;SDS011;67434;50.956;6.918;2023-02-28T06:14:54;5.57;;;2.13;;
49472;SDS011;67434;50.956;6.918;2023-02-28T06:17:19;3.90;;;2.50;;
49472;SDS011;67434;50.956;6.918;2023-02-28T06:19:44;6.47;;;1.98;;
49472;SDS011;67434;50.956;6.918;2023-02-28T06:22:10;3.78;;;2.08;;
49472;SDS011;67434;50.956;6.918;2023-02-28T06:24:35;3.70;;;2.20;;
49472;SDS011;67434;50.956;6.918;2023-02-28T06:27:00;2.40;;;1.70;;
49472;SDS011;67434;50.956;6.918;2023-02-28T06:29:30;2.78;;;1.45;;
49472;SDS011;67434;50.956;6.918;2023-02-28T06:32:04;3.03;;;1.42;;
49472;SDS011;67434;50.956;6.918;2023-02-28T06:34:31;3.88;;;1.27;;
49472;SDS011;67434;50.956;6.918;2023-02-28T06:36:56;2.30;;;1.50;;
49472;SDS011;67434;50.956;6.918;2023-02-28T06:39:21;3.58;;;1.65;;
49472;SDS011;67434;50.956;6.918;2023-02-28T06:41:47;3.80;;;1.85;;
49472;SDS011;67434;50.956;6.918;2023-02-28T06:44:16;3.92;;;1.98;;
49472;SDS011;67434;50.956;6.918;2023-02-28T06:46:44;4.32;;;2.20;;
49472;SDS011;67434;50.956;6.918;2023-02-28T06:49:10;4.70;;;2.05;;
49472;SDS011;67434;50.956;6.918;2023-02-28T06:51:37;4.00;;;1.70;;
49472;SDS011;67434;50.956;6.918;2023-02-28T06:54:04;5.47;;;1.75;;
49472;SDS011;67434;50.956;6.918;2023-02-28T06:56:34;2.80;;;1.67;;
49472;SDS011;67434;50.956;6.918;2023-02-28T06:59:00;5.75;;;1.90;;
49472;SDS011;67434;50.956;6.918;2023-02-28T07:01:44;4.90;;;1.80;;
49472;SDS011;67434;50.956;6.918;2023-02-28T07:04:10;3.78;;;1.60;;
49472;SDS011;67434;50.956;6.918;2023-02-28T07:06:35;2.75;;;1.90;;
49472;SDS011;67434;50.956;6.918;2023-02-28T07:09:00;3.92;;;1.83;;
49472;SDS011;67434;50.956;6.918;2023-02-28T07:11:27;2.47;;;1.63;;
49472;SDS011;67434;50.956;6.918;2023-02-28T07:13:53;4.65;;;2.13;;
49472;SDS011;67434;50.956;6.918;2023-02-28T07:16:20;9.10;;;2.00;;
49472;SDS011;67434;50.956;6.918;2023-02-28T07:18:46;3.33;;;1.50;;
49472;SDS011;67434;50.956;6.918;2023-02-28T07:21:12;4.85;;;1.90;;
49472;SDS011;67434;50.956;6.918;2023-02-28T07:23:50;7.13;;;2.00;;
49472;SDS011;67434;50.956;6.918;2023-02-28T07:26:17;2.28;;;1.60;;
49472;SDS011;67434;50.956;6.918;2023-02-28T07:28:44;2.80;;;1.83;;
49472;SDS011;67434;50.956;6.918;2023-02-28T07:31:11;5.47;;;1.80;;
49472;SDS011;67434;50.956;6.918;2023-02-28T07:33:37;4.63;;;2.08;;
49472;SDS011;67434;50.956;6.918;2023-02-28T07:36:03;1.75;;;1.42;;
49472;SDS011;67434;50.956;6.918;2023-02-28T07:38:30;3.58;;;1.75;;
49472;SDS011;67434;50.956;6.918;2023-02-28T07:40:56;4.47;;;2.05;;
49472;SDS011;67434;50.956;6.918;2023-02-28T07:43:21;2.85;;;1.60;;
49472;SDS011;67434;50.956;6.918;2023-02-28T07:45:46;5.47;;;1.58;;
49472;SDS011;67434;50.956;6.918;2023-02-28T07:48:12;5.13;;;1.90;;
49472;SDS011;67434;50.956;6.918;2023-02-28T07:50:37;3.22;;;1.80;;
49472;SDS011;67434;50.956;6.918;2023-02-28T07:53:02;9.10;;;1.83;;
49472;SDS011;67434;50.956;6.918;2023-02-28T07:55:29;2.88;;;1.55;;
49472;SDS011;67434;50.956;6.918;2023-02-28T07:57:54;2.72;;;1.50;;
49472;SDS011;67434;50.956;6.918;2023-02-28T08:00:40;3.67;;;2.00;;
49472;SDS011;67434;50.956;6.918;2023-02-28T08:03:06;3.95;;;1.95;;
49472;SDS011;67434;50.956;6.918;2023-02-28T08:05:37;2.38;;;1.52;;
49472;SDS011;67434;50.956;6.918;2023-02-28T08:08:03;3.90;;;1.67;;
49472;SDS011;67434;50.956;6.918;2023-02-28T08:10:29;2.25;;;1.70;;
49472;SDS011;67434;50.956;6.918;2023-02-28T08:12:54;3.70;;;1.33;;
49472;SDS011;67434;50.956;6.918;2023-02-28T08:15:19;5.47;;;1.55;;
49472;SDS011;67434;50.956;6.918;2023-02-28T08:17:45;3.55;;;2.45;;
49472;SDS011;67434;50.956;6.918;2023-02-28T08:20:10;2.08;;;1.50;;
49472;SDS011;67434;50.956;6.918;2023-02-28T08:22:36;2.50;;;1.70;;
49472;SDS011;67434;50.956;6.918;2023-02-28T08:25:02;3.30;;;1.70;;
49472;SDS011;67434;50.956;6.918;2023-02-28T08:27:28;3.47;;;1.85;;
49472;SDS011;67434;50.956;6.918;2023-02-28T08:29:53;2.38;;;1.50;;
49472;SDS011;67434;50.956;6.918;2023-02-28T08:32:37;3.28;;;1.52;;
49472;SDS011;67434;50.956;6.918;2023-02-28T08:35:04;2.80;;;1.88;;
49472;SDS011;67434;50.956;6.918;2023-02-28T08:37:30;2.85;;;1.20;;
49472;SDS011;67434;50.956;6.918;2023-02-28T08:39:55;3.72;;;1.40;;
49472;SDS011;67434;50.956;6.918;2023-02-28T08:42:20;2.38;;;1.02;;
49472;SDS011;67434;50.956;6.918;2023-02-28T08:44:46;2.28;;;1.10;;
49472;SDS011;67434;50.956;6.918;2023-02-28T08:47:11;3.00;;;1.30;;
49472;SDS011;67434;50.956;6.918;2023-02-28T08:49:37;3.78;;;1.15;;
49472;SDS011;67434;50.956;6.918;2023-02-28T08:52:02;2.03;;;1.65;;
49472;SDS011;67434;50.956;6.918;2023-02-28T08:54:29;3.30;;;1.42;;
49472;SDS011;67434;50.956;6.918;2023-02-28T08:56:56;2.22;;;1.15;;
49472;SDS011;67434;50.956;6.918;2023-02-28T08:59:22;2.47;;;1.23;;
49472;SDS011;67434;50.956;6.918;2023-02-28T09:01:47;2.85;;;1.02;;
49472;SDS011;67434;50.956;6.918;2023-02-28T09:04:13;1.77;;;1.00;;
49472;SDS011;67434;50.956;6.918;2023-02-28T09:06:38;3.17;;;1.10;;
49472;SDS011;67434;50.956;6.918;2023-02-28T09:09:04;1.15;;;0.70;;
49472;SDS011;67434;50.956;6.918;2023-02-28T09:11:31;5.20;;;1.05;;
49472;SDS011;67434;50.956;6.918;2023-02-28T09:13:57;1.67;;;0.70;;
49472;SDS011;67434;50.956;6.918;2023-02-28T09:16:25;3.20;;;0.90;;
49472;SDS011;67434;50.956;6.918;2023-02-28T09:18:50;1.73;;;0.85;;
49472;SDS011;67434;50.956;6.918;2023-02-28T09:21:16;2.83;;;1.10;;
49472;SDS011;67434;50.956;6.918;2023-02-28T09:23:43;1.10;;;0.95;;
49472;SDS011;67434;50.956;6.918;2023-02-28T09:26:13;1.75;;;1.00;;
49472;SDS011;67434;50.956;6.918;2023-02-28T09:28:44;2.60;;;1.10;;
49472;SDS011;67434;50.956;6.918;2023-02-28T09:31:11;3.17;;;1.25;;
49472;SDS011;67434;50.956;6.918;2023-02-28T09:33:41;1.80;;;1.20;;
49472;SDS011;67434;50.956;6.918;2023-02-28T09:36:07;2.00;;;0.70;;
49472;SDS011;67434;50.956;6.918;2023-02-28T09:38:33;2.33;;;0.70;;
49472;SDS011;67434;50.956;6.918;2023-02-28T09:41:00;2.05;;;0.90;;
49472;SDS011;67434;50.956;6.918;2023-02-28T09:43:33;1.88;;;0.90;;
49472;SDS011;67434;50.956;6.918;2023-02-28T09:46:05;2.35;;;0.95;;
49472;SDS011;67434;50.956;6.918;2023-02-28T09:48:32;2.75;;;0.80;;
49472;SDS011;67434;50.956;6.918;2023-02-28T09:51:03;2.60;;;1.00;;
49472;SDS011;67434;50.956;6.918;2023-02-28T09:53:35;1.60;;;0.65;;
49472;SDS011;67434;50.956;6.918;2023-02-28T09:56:08;2.28;;;0.90;;
49472;SDS011;67434;50.956;6.918;2023-02-28T09:59:10;2.38;;;0.80;;
49472;SDS011;67434;50.956;6.918;2023-02-28T10:07:53;1.73;;;0.88;;
49472;SDS011;67434;50.956;6.918;2023-02-28T10:10:03;1.35;;;0.90;;
49472;SDS011;67434;50.956;6.918;2023-02-28T10:12:40;2.75;;;0.98;;
49472;SDS011;67434;50.956;6.918;2023-02-28T10:15:13;3.25;;;1.10;;
49472;SDS011;67434;50.956;6.918;2023-02-28T10:17:40;5.75;;;1.10;;
49472;SDS011;67434;50.956;6.918;2023-02-28T10:20:13;5.28;;;0.80;;
49472;SDS011;67434;50.956;6.918;2023-02-28T10:25:26;1.60;;;0.95;;
49472;SDS011;67434;50.956;6.918;2023-02-28T10:27:53;2.00;;;0.90;;
49472;SDS011;67434;50.956;6.918;2023-02-28T10:30:26;2.72;;;1.10;;
49472;SDS011;67434;50.956;6.918;2023-02-28T10:32:51;4.28;;;1.10;;
49472;SDS011;67434;50.956;6.918;2023-02-28T10:35:22;1.38;;;0.88;;
49472;SDS011;67434;50.956;6.918;2023-02-28T10:37:50;2.65;;;1.00;;
49472;SDS011;67434;50.956;6.918;2023-02-28T10:45:39;3.47;;;1.00;;
49472;SDS011;67434;50.956;6.918;2023-02-28T10:50:46;1.90;;;0.98;;
49472;SDS011;67434;50.956;6.918;2023-02-28T10:58:32;2.53;;;1.63;;
49472;SDS011;67434;50.956;6.918;2023-02-28T11:01:14;2.30;;;1.05;;
49472;SDS011;67434;50.956;6.918;2023-02-28T11:03:59;2.42;;;1.33;;
49472;SDS011;67434;50.956;6.918;2023-02-28T11:06:31;2.47;;;1.48;;
49472;SDS011;67434;50.956;6.918;2023-02-28T11:09:02;2.35;;;1.52;;
49472;SDS011;67434;50.956;6.918;2023-02-28T11:11:40;3.65;;;1.70;;
49472;SDS011;67434;50.956;6.918;2023-02-28T11:14:17;3.92;;;1.45;;
49472;SDS011;67434;50.956;6.918;2023-02-28T11:16:47;2.90;;;1.17;;
49472;SDS011;67434;50.956;6.918;2023-02-28T11:19:22;2.20;;;1.30;;
49472;SDS011;67434;50.956;6.918;2023-02-28T11:21:57;1.80;;;1.10;;
49472;SDS011;67434;50.956;6.918;2023-02-28T11:24:47;1.63;;;1.00;;
49472;SDS011;67434;50.956;6.918;2023-02-28T11:27:25;3.92;;;1.50;;
49472;SDS011;67434;50.956;6.918;2023-02-28T11:29:57;4.40;;;1.65;;
49472;SDS011;67434;50.956;6.918;2023-02-28T11:32:24;3.42;;;1.70;;
49472;SDS011;67434;50.956;6.918;2023-02-28T11:35:00;4.38;;;2.00;;
49472;SDS011;67434;50.956;6.918;2023-02-28T11:37:47;4.07;;;1.70;;
49472;SDS011;67434;50.956;6.918;2023-02-28T11:40:18;2.65;;;1.95;;
49472;SDS011;67434;50.956;6.918;2023-02-28T11:46:20;2.85;;;1.65;;
49472;SDS011;67434;50.956;6.918;2023-02-28T11:51:47;4.40;;;2.00;;
49472;SDS011;67434;50.956;6.918;2023-02-28T11:54:27;3.40;;;1.52;;
49472;SDS011;67434;50.956;6.918;2023-02-28T11:57:16;1.92;;;1.38;;
49472;SDS011;67434;50.956;6.918;2023-02-28T12:03:19;2.95;;;1.55;;
49472;SDS011;67434;50.956;6.918;2023-02-28T12:06:30;3.35;;;2.00;;
49472;SDS011;67434;50.956;6.918;2023-02-28T12:11:51;5.15;;;2.70;;
49472;SDS011;67434;50.956;6.918;2023-02-28T12:23:21;5.40;;;1.70;;
49472;SDS011;67434;50.956;6.918;2023-02-28T12:25:54;3.00;;;1.50;;
49472;SDS011;67434;50.956;6.918;2023-02-28T12:28:34;4.30;;;1.52;;
49472;SDS011;67434;50.956;6.918;2023-02-28T12:31:09;4.35;;;1.80;;
49472;SDS011;67434;50.956;6.918;2023-02-28T12:33:45;2.25;;;1.80;;
49472;SDS011;67434;50.956;6.918;2023-02-28T12:36:14;2.05;;;1.67;;
49472;SDS011;67434;50.956;6.918;2023-02-28T12:38:45;2.85;;;1.50;;
49472;SDS011;67434;50.956;6.918;2023-02-28T12:41:18;7.20;;;1.77;;
49472;SDS011;67434;50.956;6.918;2023-02-28T12:44:21;4.78;;;2.00;;
49472;SDS011;67434;50.956;6.918;2023-02-28T12:46:51;2.78;;;1.58;;
49472;SDS011;67434;50.956;6.918;2023-02-28T12:49:31;2.88;;;1.58;;
49472;SDS011;67434;50.956;6.918;2023-02-28T12:52:20;3.35;;;1.77;;
49472;SDS011;67434;50.956;6.918;2023-02-28T12:55:07;4.47;;;2.22;;
49472;SDS011;67434;50.956;6.918;2023-02-28T12:57:53;2.70;;;1.60;;
49472;SDS011;67434;50.956;6.918;2023-02-28T13:00:30;5.38;;;2.17;;
49472;SDS011;67434;50.956;6.918;2023-02-28T13:09:10;3.22;;;1.75;;
49472;SDS011;67434;50.956;6.918;2023-02-28T13:11:45;3.13;;;1.35;;
49472;SDS011;67434;50.956;6.918;2023-02-28T13:14:16;2.83;;;2.33;;
49472;SDS011;67434;50.956;6.918;2023-02-28T13:17:10;2.08;;;1.63;;
49472;SDS011;67434;50.956;6.918;2023-02-28T13:22:49;2.22;;;1.73;;
49472;SDS011;67434;50.956;6.918;2023-02-28T13:27:47;2.83;;;2.28;;
49472;SDS011;67434;50.956;6.918;2023-02-28T13:33:30;4.00;;;1.98;;
49472;SDS011;67434;50.956;6.918;2023-02-28T13:36:07;2.10;;;1.55;;
49472;SDS011;67434;50.956;6.918;2023-02-28T13:38:37;3.47;;;1.88;;
49472;SDS011;67434;50.956;6.918;2023-02-28T13:44:09;4.90;;;2.20;;
49472;SDS011;67434;50.956;6.918;2023-02-28T14:06:09;12.00;;;4.30;;
49472;SDS011;67434;50.956;6.918;2023-02-28T14:08:51;7.00;;;2.75;;
49472;SDS011;67434;50.956;6.918;2023-02-28T14:11:39;5.95;;;3.45;;
49472;SDS011;67434;50.956;6.918;2023-02-28T14:14:07;5.85;;;2.38;;
49472;SDS011;67434;50.956;6.918;2023-02-28T14:16:40;4.05;;;2.35;;
49472;SDS011;67434;50.956;6.918;2023-02-28T14:19:12;3.25;;;2.20;;
49472;SDS011;67434;50.956;6.918;2023-02-28T14:22:07;4.63;;;2.05;;
49472;SDS011;67434;50.956;6.918;2023-02-28T14:25:18;6.40;;;2.00;;
49472;SDS011;67434;50.956;6.918;2023-02-28T14:28:05;3.03;;;2.20;;
49472;SDS011;67434;50.956;6.918;2023-02-28T14:31:07;5.38;;;2.63;;
49472;SDS011;67434;50.956;6.918;2023-02-28T14:36:33;2.47;;;1.80;;
49472;SDS011;67434;50.956;6.918;2023-02-28T14:39:06;3.72;;;2.08;;
49472;SDS011;67434;50.956;6.918;2023-02-28T14:41:48;3.33;;;1.80;;
49472;SDS011;67434;50.956;6.918;2023-02-28T14:44:24;2.92;;;1.90;;
49472;SDS011;67434;50.956;6.918;2023-02-28T14:46:56;5.20;;;2.33;;
49472;SDS011;67434;50.956;6.918;2023-02-28T14:49:38;3.03;;;2.40;;
49472;SDS011;67434;50.956;6.918;2023-02-28T14:52:24;4.60;;;1.95;;
49472;SDS011;67434;50.956;6.918;2023-02-28T14:55:13;3.65;;;2.55;;
49472;SDS011;67434;50.956;6.918;2023-02-28T14:57:52;3.53;;;2.00;;
49472;SDS011;67434;50.956;6.918;2023-02-28T15:00:21;4.22;;;2.20;;
49472;SDS011;67434;50.956;6.918;2023-02-28T15:02:52;4.25;;;2.33;;
49472;SDS011;67434;50.956;6.918;2023-02-28T15:05:29;4.20;;;2.10;;
49472;SDS011;67434;50.956;6.918;2023-02-28T15:08:06;2.90;;;1.92;;
49472;SDS011;67434;50.956;6.918;2023-02-28T15:10:38;3.70;;;2.28;;
49472;SDS011;67434;50.956;6.918;2023-02-28T15:13:06;4.15;;;2.38;;
49472;SDS011;67434;50.956;6.918;2023-02-28T15:18:04;4.05;;;2.70;;
49472;SDS011;67434;50.956;6.918;2023-02-28T15:20:32;3.90;;;2.33;;
49472;SDS011;67434;50.956;6.918;2023-02-28T15:23:17;4.82;;;2.67;;
49472;SDS011;67434;50.956;6.918;2023-02-28T15:25:48;2.90;;;2.50;;
49472;SDS011;67434;50.956;6.918;2023-02-28T15:28:36;5.35;;;2.85;;
49472;SDS011;67434;50.956;6.918;2023-02-28T15:31:13;3.25;;;2.10;;
49472;SDS011;67434;50.956;6.918;2023-02-28T15:33:52;4.50;;;2.40;;
49472;SDS011;67434;50.956;6.918;2023-02-28T15:36:24;3.45;;;2.13;;
49472;SDS011;67434;50.956;6.918;2023-02-28T15:38:52;5.88;;;2.50;;
49472;SDS011;67434;50.956;6.918;2023-02-28T15:41:25;4.45;;;2.72;;
49472;SDS011;67434;50.956;6.918;2023-02-28T15:46:44;4.50;;;2.58;;
49472;SDS011;67434;50.956;6.918;2023-02-28T15:49:20;3.30;;;2.17;;
49472;SDS011;67434;50.956;6.918;2023-02-28T15:51:47;9.25;;;3.00;;
49472;SDS011;67434;50.956;6.918;2023-02-28T15:54:33;10.18;;;4.47;;
49472;SDS011;67434;50.956;6.918;2023-02-28T15:57:06;6.40;;;3.28;;
49472;SDS011;67434;50.956;6.918;2023-02-28T15:59:37;9.00;;;3.97;;
49472;SDS011;67434;50.956;6.918;2023-02-28T16:04:34;3.55;;;2.10;;
49472;SDS011;67434;50.956;6.918;2023-02-28T16:07:02;4.53;;;2.78;;
49472;SDS011;67434;50.956;6.918;2023-02-28T16:09:34;3.85;;;2.70;;
49472;SDS011;67434;50.956;6.918;2023-02-28T16:12:00;3.47;;;2.10;;
49472;SDS011;67434;50.956;6.918;2023-02-28T16:14:27;4.13;;;2.25;;
49472;SDS011;67434;50.956;6.918;2023-02-28T16:16:56;2.63;;;2.10;;
49472;SDS011;67434;50.956;6.918;2023-02-28T16:19:28;4.95;;;2.90;;
49472;SDS011;67434;50.956;6.918;2023-02-28T16:21:54;4.82;;;2.88;;
49472;SDS011;67434;50.956;6.918;2023-02-28T16:24:19;4.68;;;3.13;;
49472;SDS011;67434;50.956;6.918;2023-02-28T16:26:45;4.85;;;2.50;;
49472;SDS011;67434;50.956;6.918;2023-02-28T16:29:33;3.95;;;2.03;;
49472;SDS011;67434;50.956;6.918;2023-02-28T16:32:02;3.58;;;1.88;;
49472;SDS011;67434;50.956;6.918;2023-02-28T16:34:30;3.30;;;2.20;;
49472;SDS011;67434;50.956;6.918;2023-02-28T16:36:56;3.58;;;2.38;;
49472;SDS011;67434;50.956;6.918;2023-02-28T16:39:40;3.50;;;2.15;;
49472;SDS011;67434;50.956;6.918;2023-02-28T16:42:09;5.95;;;2.47;;
49472;SDS011;67434;50.956;6.918;2023-02-28T16:44:40;2.72;;;2.00;;
49472;SDS011;67434;50.956;6.918;2023-02-28T16:47:05;5.30;;;2.20;;
49472;SDS011;67434;50.956;6.918;2023-02-28T16:49:30;6.40;;;2.88;;
49472;SDS011;67434;50.956;6.918;2023-02-28T16:51:56;4.18;;;2.10;;
49472;SDS011;67434;50.956;6.918;2023-02-28T16:54:22;5.65;;;3.47;;
49472;SDS011;67434;50.956;6.918;2023-02-28T16:56:47;6.00;;;3.05;;
49472;SDS011;67434;50.956;6.918;2023-02-28T16:59:14;7.28;;;2.70;;
49472;SDS011;67434;50.956;6.918;2023-02-28T17:01:44;4.00;;;2.38;;
49472;SDS011;67434;50.956;6.918;2023-02-28T17:04:10;7.45;;;3.72;;
49472;SDS011;67434;50.956;6.918;2023-02-28T17:06:36;9.05;;;4.15;;
49472;SDS011;67434;50.956;6.918;2023-02-28T17:09:02;10.52;;;4.95;;
49472;SDS011;67434;50.956;6.918;2023-02-28T17:11:27;10.02;;;4.38;;
49472;SDS011;67434;50.956;6.918;2023-02-28T17:13:53;9.43;;;4.63;;
49472;SDS011;67434;50.956;6.918;2023-02-28T17:18:59;10.50;;;3.72;;
49472;SDS011;67434;50.956;6.918;2023-02-28T17:21:29;6.05;;;3.08;;
49472;SDS011;67434;50.956;6.918;2023-02-28T17:23:56;9.73;;;4.05;;
49472;SDS011;67434;50.956;6.918;2023-02-28T17:26:21;5.45;;;2.92;;
49472;SDS011;67434;50.956;6.918;2023-02-28T17:28:50;9.27;;;4.22;;